createdAt,value
2018-01-10T00:00:54.729Z,25.90
2018-01-10T00:03:22.102Z,24.47
2018-01-10T00:05:49.519Z,24.73
2018-01-10T00:08:16.961Z,26.03
2018-01-10T00:10:44.376Z,26.43
2018-01-10T00:13:11.785Z,27.37
2018-01-10T00:15:39.201Z,28.00
2018-01-10T00:18:06.628Z,27.63
2018-01-10T00:20:34.372Z,27.77
2018-01-10T00:23:01.774Z,25.73
2018-01-10T00:25:29.213Z,27.87
2018-01-10T00:27:56.632Z,26.83
2018-01-10T00:30:24.033Z,26.97
2018-01-10T00:32:51.862Z,28.10
2018-01-10T00:35:19.262Z,27.70
2018-01-10T00:37:46.681Z,26.13
2018-01-10T00:40:14.109Z,28.67
2018-01-10T00:42:41.509Z,28.07
2018-01-10T00:45:08.945Z,28.70
2018-01-10T00:47:36.424Z,28.00
2018-01-10T00:50:03.851Z,28.23
2018-01-10T00:52:31.263Z,25.80
2018-01-10T00:54:58.684Z,26.37
2018-01-10T00:57:26.085Z,26.20
2018-01-10T00:59:53.505Z,27.37
2018-01-10T01:02:20.921Z,27.50
2018-01-10T01:04:48.338Z,28.50
2018-01-10T01:07:16.157Z,27.77
2018-01-10T01:09:43.570Z,29.67
2018-01-10T01:12:10.983Z,29.10
2018-01-10T01:14:38.429Z,28.37
2018-01-10T01:17:05.861Z,28.60
2018-01-10T01:19:33.271Z,27.83
2018-01-10T01:22:00.704Z,26.53
2018-01-10T01:24:28.113Z,27.10
2018-01-10T01:26:55.527Z,28.20
2018-01-10T01:29:22.949Z,28.17
2018-01-10T01:31:50.378Z,27.03
2018-01-10T01:34:17.790Z,24.63
2018-01-10T01:36:45.213Z,25.87
2018-01-10T01:39:12.622Z,26.07
2018-01-10T01:41:40.022Z,25.87
2018-01-10T01:44:07.564Z,26.40
2018-01-10T01:46:34.945Z,26.17
2018-01-10T01:49:02.349Z,28.00
2018-01-10T01:51:30.177Z,25.67
2018-01-10T01:53:57.677Z,28.43
2018-01-10T01:56:25.081Z,29.13
2018-01-10T01:58:52.503Z,27.47
2018-01-10T02:01:19.908Z,29.10
2018-01-10T02:03:47.318Z,28.10
2018-01-10T02:06:14.725Z,29.10
2018-01-10T02:08:42.254Z,28.03
2018-01-10T02:11:09.656Z,25.57
2018-01-10T02:13:37.085Z,26.67
2018-01-10T02:16:04.493Z,26.67
2018-01-10T02:18:31.898Z,26.83
2018-01-10T02:20:59.317Z,24.83
2018-01-10T02:23:26.720Z,23.70
2018-01-10T02:25:54.157Z,23.70
2018-01-10T02:28:21.588Z,23.67
2018-01-10T02:30:48.981Z,23.80
2018-01-10T02:33:16.405Z,22.50
2018-01-10T02:35:43.856Z,23.07
2018-01-10T02:38:11.273Z,22.23
2018-01-10T02:40:38.693Z,22.40
2018-01-10T02:43:06.122Z,22.33
2018-01-10T02:45:33.538Z,23.10
2018-01-10T02:48:00.949Z,22.07
2018-01-10T02:50:28.373Z,21.60
2018-01-10T02:52:55.798Z,23.33
2018-01-10T02:55:23.210Z,23.60
2018-01-10T02:57:50.622Z,23.00
2018-01-10T03:00:18.035Z,23.90
2018-01-10T03:02:45.435Z,23.63
2018-01-10T03:05:12.861Z,23.80
2018-01-10T03:07:40.266Z,23.80
2018-01-10T03:10:07.674Z,23.90
2018-01-10T03:12:35.093Z,25.30
2018-01-10T03:15:02.503Z,22.93
2018-01-10T03:17:29.901Z,22.90
2018-01-10T03:19:57.317Z,23.30
2018-01-10T03:22:24.729Z,23.23
2018-01-10T03:24:52.152Z,26.03
2018-01-10T03:27:19.558Z,24.40
2018-01-10T03:29:46.976Z,22.93
2018-01-10T03:32:14.369Z,23.00
2018-01-10T03:34:41.800Z,22.57
2018-01-10T03:37:09.210Z,21.53
2018-01-10T03:39:36.613Z,20.87
2018-01-10T03:42:04.037Z,19.57
2018-01-10T03:44:31.445Z,20.87
2018-01-10T03:46:58.856Z,19.93
2018-01-10T03:49:26.269Z,21.50
2018-01-10T03:51:53.677Z,21.70
2018-01-10T03:54:22.315Z,21.23
2018-01-10T03:56:49.729Z,22.47
2018-01-10T03:59:17.138Z,20.60
2018-01-10T04:01:44.541Z,19.23
2018-01-10T04:04:11.977Z,18.27
2018-01-10T04:06:39.397Z,17.67
2018-01-10T04:09:06.809Z,17.70
2018-01-10T04:11:34.221Z,19.87
2018-01-10T04:14:01.649Z,20.70
2018-01-10T04:16:29.070Z,18.17
2018-01-10T04:18:56.481Z,17.47
2018-01-10T04:21:23.893Z,17.70
2018-01-10T04:23:51.333Z,17.73
2018-01-10T04:26:18.750Z,16.90
2018-01-10T04:28:46.169Z,17.17
2018-01-10T04:31:13.569Z,17.33
2018-01-10T04:33:40.988Z,17.53
2018-01-10T04:36:08.388Z,16.97
2018-01-10T04:38:35.805Z,16.57
2018-01-10T04:41:03.517Z,16.40
2018-01-10T04:43:30.927Z,17.17
2018-01-10T04:45:58.329Z,18.80
2018-01-10T04:48:25.754Z,19.13
2018-01-10T04:50:53.161Z,18.27
2018-01-10T04:53:20.573Z,18.53
2018-01-10T04:55:48.001Z,19.87
2018-01-10T04:58:15.406Z,16.80
2018-01-10T05:00:42.810Z,16.73
2018-01-10T05:03:10.229Z,16.83
2018-01-10T05:05:37.636Z,15.60
2018-01-10T05:08:05.041Z,15.10
2018-01-10T05:10:32.463Z,15.30
2018-01-10T05:12:59.866Z,15.60
2018-01-10T05:15:27.275Z,15.33
2018-01-10T05:17:54.705Z,15.07
2018-01-10T05:20:22.123Z,13.30
2018-01-10T05:22:49.537Z,14.67
2018-01-10T05:25:16.953Z,14.20
2018-01-10T05:27:44.357Z,14.97
2018-01-10T05:30:11.860Z,14.57
2018-01-10T05:32:39.181Z,14.43
2018-01-10T05:35:06.630Z,15.87
2018-01-10T05:37:34.038Z,16.03
2018-01-10T05:40:01.461Z,15.40
2018-01-10T05:42:28.874Z,18.43
2018-01-10T05:44:56.277Z,17.70
2018-01-10T05:47:24.013Z,19.20
2018-01-10T05:49:51.417Z,19.17
2018-01-10T05:52:18.823Z,19.57
2018-01-10T05:54:46.241Z,20.00
2018-01-10T05:57:13.657Z,19.07
2018-01-10T05:59:41.054Z,17.90
2018-01-10T06:02:09.635Z,18.90
2018-01-10T06:04:37.350Z,18.40
2018-01-10T06:07:04.757Z,19.00
2018-01-10T06:09:32.185Z,18.00
2018-01-10T06:11:59.634Z,18.50
2018-01-10T06:14:27.045Z,18.10
2018-01-10T06:16:54.482Z,17.87
2018-01-10T06:19:21.897Z,18.80
2018-01-10T06:21:49.301Z,18.73
2018-01-10T06:24:16.721Z,18.40
2018-01-10T06:26:44.140Z,16.10
2018-01-10T06:29:11.552Z,17.30
2018-01-10T06:31:38.969Z,17.10
2018-01-10T06:34:06.374Z,17.27
2018-01-10T06:36:33.784Z,17.20
2018-01-10T06:39:01.229Z,16.27
2018-01-10T06:41:28.629Z,16.90
2018-01-10T06:43:56.037Z,17.43
2018-01-10T06:46:23.477Z,17.40
2018-01-10T06:48:50.882Z,17.67
2018-01-10T06:51:18.286Z,17.20
2018-01-10T06:53:45.718Z,17.33
2018-01-10T06:56:13.121Z,17.17
2018-01-10T06:58:40.524Z,16.27
2018-01-10T07:01:07.982Z,16.27
2018-01-10T07:03:35.397Z,16.30
2018-01-10T07:06:02.818Z,15.13
2018-01-10T07:08:30.237Z,15.33
2018-01-10T07:10:57.646Z,13.20
2018-01-10T07:13:25.057Z,14.20
2018-01-10T07:15:52.481Z,13.20
2018-01-10T07:18:19.885Z,14.37
2018-01-10T07:20:47.297Z,13.27
2018-01-10T07:23:14.718Z,12.57
2018-01-10T07:25:42.118Z,13.10
2018-01-10T07:28:09.530Z,12.13
2018-01-10T07:30:36.945Z,12.40
2018-01-10T07:33:04.353Z,12.13
2018-01-10T07:35:31.754Z,12.20
2018-01-10T07:37:59.186Z,12.00
2018-01-10T07:40:26.608Z,12.60
2018-01-10T07:42:54.009Z,12.53
2018-01-10T07:45:21.432Z,12.13
2018-01-10T07:47:48.835Z,11.73
2018-01-10T07:50:16.241Z,12.70
2018-01-10T07:52:43.662Z,12.63
2018-01-10T07:55:11.073Z,12.47
2018-01-10T07:57:38.478Z,12.87
2018-01-10T08:00:05.909Z,14.33
2018-01-10T08:02:33.317Z,13.77
2018-01-10T08:05:00.725Z,14.87
2018-01-10T08:07:28.145Z,15.47
2018-01-10T08:09:55.566Z,16.80
2018-01-10T08:12:22.973Z,15.70
2018-01-10T08:14:50.402Z,16.27
2018-01-10T08:17:17.813Z,14.27
2018-01-10T08:19:45.222Z,15.37
2018-01-10T08:22:12.665Z,15.90
2018-01-10T08:24:40.069Z,17.43
2018-01-10T08:27:07.486Z,15.97
2018-01-10T08:29:34.909Z,15.80
2018-01-10T08:32:02.323Z,13.67
2018-01-10T08:34:29.729Z,13.87
2018-01-10T08:36:57.148Z,14.63
2018-01-10T08:39:24.554Z,14.70
2018-01-10T08:41:51.964Z,13.70
2018-01-10T08:44:19.390Z,15.50
2018-01-10T08:46:46.800Z,16.00
2018-01-10T08:49:14.206Z,19.17
2018-01-10T08:51:41.629Z,17.70
2018-01-10T08:54:09.038Z,22.70
2018-01-10T08:56:36.462Z,22.00
2018-01-10T08:59:03.886Z,20.60
2018-01-10T09:01:31.306Z,18.47
2018-01-10T09:03:58.709Z,17.20
2018-01-10T09:06:26.125Z,18.20
2018-01-10T09:08:53.533Z,15.60
2018-01-10T09:11:20.938Z,15.73
2018-01-10T09:13:48.363Z,15.97
2018-01-10T09:16:15.765Z,15.37
2018-01-10T09:18:43.186Z,15.40
2018-01-10T09:21:10.601Z,14.13
2018-01-10T09:23:38.006Z,14.27
2018-01-10T09:26:05.417Z,13.97
2018-01-10T09:28:32.834Z,14.10
2018-01-10T09:31:00.242Z,13.77
2018-01-10T09:33:27.654Z,13.70
2018-01-10T09:35:55.068Z,13.40
2018-01-10T09:38:22.478Z,13.33
2018-01-10T09:40:49.897Z,13.03
2018-01-10T09:43:17.321Z,12.30
2018-01-10T09:45:44.748Z,11.90
2018-01-10T09:48:12.158Z,11.13
2018-01-10T09:50:39.589Z,12.00
2018-01-10T09:53:07.002Z,11.90
2018-01-10T09:55:34.409Z,11.17
2018-01-10T09:58:01.829Z,10.90
2018-01-10T10:00:29.232Z,11.87
2018-01-10T10:02:56.645Z,11.30
2018-01-10T10:05:24.066Z,11.63
2018-01-10T10:07:51.478Z,11.60
2018-01-10T10:10:18.887Z,11.30
2018-01-10T10:12:46.311Z,12.37
2018-01-10T10:15:13.721Z,11.10
2018-01-10T10:17:41.133Z,11.67
2018-01-10T10:20:08.557Z,11.00
2018-01-10T10:22:35.970Z,11.50
2018-01-10T10:25:03.387Z,10.73
2018-01-10T10:27:30.813Z,10.30
2018-01-10T10:29:58.241Z,11.80
2018-01-10T10:32:25.646Z,11.97
2018-01-10T10:34:53.069Z,11.30
2018-01-10T10:37:20.477Z,12.13
2018-01-10T10:39:47.928Z,11.80
2018-01-10T10:42:15.369Z,11.20
2018-01-10T10:44:42.829Z,11.73
2018-01-10T10:47:10.196Z,11.30
2018-01-10T10:49:37.618Z,12.60
2018-01-10T10:52:05.026Z,11.23
2018-01-10T10:54:32.451Z,12.27
2018-01-10T10:56:59.885Z,11.63
2018-01-10T10:59:27.305Z,11.70
2018-01-10T11:01:54.718Z,12.27
2018-01-10T11:04:22.153Z,11.70
2018-01-10T11:06:49.562Z,12.10
2018-01-10T11:09:16.970Z,12.50
2018-01-10T11:11:44.432Z,11.57
2018-01-10T11:14:11.849Z,12.10
2018-01-10T11:16:39.353Z,13.30
2018-01-10T11:19:06.781Z,12.00
2018-01-10T11:21:34.254Z,12.97
2018-01-10T11:24:01.660Z,12.70
2018-01-10T11:26:29.083Z,13.60
2018-01-10T11:28:56.522Z,12.97
2018-01-10T11:31:23.945Z,12.17
2018-01-10T11:33:51.398Z,12.60
2018-01-10T11:36:18.835Z,11.70
2018-01-10T11:38:46.261Z,11.90
2018-01-10T11:41:13.705Z,12.33
2018-01-10T11:43:41.146Z,12.50
2018-01-10T11:46:08.574Z,13.77
2018-01-10T11:48:36.005Z,14.30
2018-01-10T11:51:03.430Z,13.13
2018-01-10T11:53:30.916Z,13.13
2018-01-10T11:55:58.328Z,12.93
2018-01-10T11:58:25.762Z,12.07
2018-01-10T12:00:53.169Z,12.40
2018-01-10T12:03:20.584Z,12.47
2018-01-10T12:05:48.017Z,15.00
2018-01-10T12:08:15.451Z,12.80
2018-01-10T12:10:42.913Z,14.73
2018-01-10T12:13:10.333Z,14.27
2018-01-10T12:15:37.736Z,13.60
2018-01-10T12:18:05.164Z,15.00
2018-01-10T12:20:33.028Z,13.83
2018-01-10T12:23:00.449Z,14.47
2018-01-10T12:25:27.881Z,13.57
2018-01-10T12:27:55.303Z,13.90
2018-01-10T12:30:22.747Z,12.60
2018-01-10T12:32:50.169Z,12.70
2018-01-10T12:35:17.590Z,13.00
2018-01-10T12:37:45.006Z,12.60
2018-01-10T12:40:12.471Z,13.70
2018-01-10T12:42:39.885Z,14.73
2018-01-10T12:45:07.311Z,13.80
2018-01-10T12:47:34.753Z,14.30
2018-01-10T12:50:02.174Z,14.20
2018-01-10T12:52:29.602Z,15.07
2018-01-10T12:54:57.418Z,14.33
2018-01-10T12:57:24.838Z,14.37
2018-01-10T12:59:52.254Z,13.80
2018-01-10T13:02:19.878Z,13.60
2018-01-10T13:04:47.309Z,13.20
2018-01-10T13:07:14.784Z,14.17
2018-01-10T13:09:42.231Z,14.20
2018-01-10T13:12:09.709Z,13.23
2018-01-10T13:14:37.133Z,13.10
2018-01-10T13:17:04.585Z,13.10
2018-01-10T13:19:32.021Z,14.03
2018-01-10T13:21:59.429Z,13.00
2018-01-10T13:24:26.892Z,13.53
2018-01-10T13:26:54.336Z,14.17
2018-01-10T13:29:21.764Z,13.30
2018-01-10T13:31:49.215Z,13.00
2018-01-10T13:34:16.640Z,14.50
2018-01-10T13:36:44.070Z,14.17
2018-01-10T13:39:11.503Z,14.10
2018-01-10T13:41:38.915Z,13.63
2018-01-10T13:44:06.334Z,14.87
2018-01-10T13:46:33.787Z,15.47
2018-01-10T13:49:01.210Z,15.43
2018-01-10T13:51:28.651Z,15.07
2018-01-10T13:53:56.069Z,15.77
2018-01-10T13:56:23.522Z,14.60
2018-01-10T13:58:50.942Z,15.33
2018-01-10T14:01:18.361Z,14.50
2018-01-10T14:03:45.778Z,15.47
2018-01-10T14:06:13.189Z,13.87
2018-01-10T14:08:40.628Z,13.97
2018-01-10T14:11:08.057Z,12.73
2018-01-10T14:13:35.476Z,14.07
2018-01-10T14:16:02.918Z,14.00
2018-01-10T14:18:30.333Z,14.80
2018-01-10T14:20:57.920Z,15.00
2018-01-10T14:23:25.366Z,14.23
2018-01-10T14:25:52.795Z,15.67
2018-01-10T14:28:20.206Z,11.67
2018-01-10T14:30:47.705Z,10.97
2018-01-10T14:33:15.126Z,11.20
2018-01-10T14:35:42.525Z,10.00
2018-01-10T14:38:09.991Z,10.40
2018-01-10T14:40:38.197Z,12.20
2018-01-10T14:43:05.637Z,10.50
2018-01-10T14:45:33.058Z,11.00
2018-01-10T14:48:00.485Z,12.20
2018-01-10T14:50:27.905Z,11.90
2018-01-10T14:52:55.355Z,10.70
2018-01-10T14:55:22.789Z,12.37
2018-01-10T14:57:50.201Z,12.20
2018-01-10T15:00:17.674Z,12.20
2018-01-10T15:02:45.089Z,11.57
2018-01-10T15:05:12.505Z,11.47
2018-01-10T15:07:39.256Z,11.33
2018-01-10T15:10:06.746Z,11.97
2018-01-10T15:12:34.185Z,12.30
2018-01-10T15:15:01.625Z,10.60
2018-01-10T15:17:29.033Z,11.80
2018-01-10T15:19:56.481Z,11.27
2018-01-10T15:22:23.915Z,12.90
2018-01-10T15:24:51.342Z,11.97
2018-01-10T15:27:18.744Z,11.90
2018-01-10T15:29:46.165Z,11.50
2018-01-10T15:32:13.590Z,12.03
2018-01-10T15:34:41.000Z,10.90
2018-01-10T15:37:08.446Z,10.83
2018-01-10T15:39:37.890Z,10.83
2018-01-10T15:42:06.322Z,10.57
2018-01-10T15:44:33.748Z,11.67
2018-01-10T15:47:01.925Z,11.63
2018-01-10T15:49:29.345Z,12.37
2018-01-10T15:51:57.702Z,12.30
2018-01-10T15:54:25.103Z,11.80
2018-01-10T15:56:52.518Z,11.90
2018-01-10T15:59:19.971Z,12.00
2018-01-10T16:01:47.375Z,11.60
2018-01-10T16:04:14.785Z,11.70
2018-01-10T16:06:42.302Z,12.00
2018-01-10T16:09:09.718Z,11.90
2018-01-10T16:11:37.151Z,11.87
2018-01-10T16:14:04.594Z,12.00
2018-01-10T16:16:32.004Z,10.83
2018-01-10T16:18:59.413Z,11.00
2018-01-10T16:21:26.848Z,12.00
2018-01-10T16:23:54.266Z,11.80
2018-01-10T16:26:21.691Z,12.23
2018-01-10T16:28:49.145Z,11.20
2018-01-10T16:31:16.604Z,11.57
2018-01-10T16:33:44.014Z,11.40
2018-01-10T16:36:11.543Z,11.57
2018-01-10T16:38:39.846Z,11.77
2018-01-10T16:41:07.265Z,11.00
2018-01-10T16:43:34.719Z,13.40
2018-01-10T16:46:02.145Z,11.70
2018-01-10T16:48:29.549Z,12.07
2018-01-10T16:50:57.012Z,12.90
2018-01-10T16:53:24.425Z,15.20
2018-01-10T16:55:51.828Z,14.97
2018-01-10T16:58:19.245Z,13.30
2018-01-10T17:00:46.678Z,12.80
2018-01-10T17:03:14.086Z,13.40
2018-01-10T17:05:41.518Z,12.90
2018-01-10T17:08:08.944Z,12.30
2018-01-10T17:10:36.369Z,11.20
2018-01-10T17:13:03.778Z,11.67
2018-01-10T17:15:31.253Z,12.77
2018-01-10T17:17:58.666Z,11.03
2018-01-10T17:20:26.098Z,10.93
2018-01-10T17:22:53.530Z,11.40
2018-01-10T17:25:20.996Z,10.90
2018-01-10T17:27:48.354Z,12.03
2018-01-10T17:30:15.783Z,12.60
2018-01-10T17:32:43.210Z,11.90
2018-01-10T17:35:10.600Z,10.53
2018-01-10T17:37:38.018Z,11.00
2018-01-10T17:40:05.428Z,12.70
2018-01-10T17:42:32.866Z,14.23
2018-01-10T17:45:00.282Z,11.83
2018-01-10T17:47:27.706Z,11.40
2018-01-10T17:49:55.113Z,11.87
2018-01-10T17:52:22.533Z,11.90
2018-01-10T17:54:49.965Z,12.10
2018-01-10T17:57:17.377Z,11.60
2018-01-10T17:59:44.802Z,12.50
2018-01-10T18:02:12.678Z,12.43
2018-01-10T18:04:40.093Z,12.43
2018-01-10T18:07:07.538Z,12.63
2018-01-10T18:09:34.969Z,11.07
2018-01-10T18:12:02.381Z,11.73
2018-01-10T18:14:29.825Z,11.37
2018-01-10T18:16:57.245Z,13.17
2018-01-10T18:19:24.657Z,11.27
2018-01-10T18:21:52.110Z,12.00
2018-01-10T18:24:19.567Z,12.27
2018-01-10T18:26:46.977Z,11.23
2018-01-10T18:29:14.453Z,10.37
2018-01-10T18:31:41.903Z,12.13
2018-01-10T18:34:09.313Z,12.03
2018-01-10T18:36:36.728Z,11.63
2018-01-10T18:39:04.150Z,11.40
2018-01-10T18:41:31.637Z,11.20
2018-01-10T18:43:59.065Z,11.40
2018-01-10T18:46:26.482Z,11.47
2018-01-10T18:48:53.915Z,11.53
2018-01-10T18:51:21.323Z,10.87
2018-01-10T18:53:48.737Z,11.20
2018-01-10T18:56:16.158Z,11.77
2018-01-10T18:58:43.569Z,12.40
2018-01-10T19:01:11.021Z,13.63
2018-01-10T19:03:39.097Z,13.00
2018-01-10T19:06:06.562Z,13.20
2018-01-10T19:08:33.979Z,11.20
2018-01-10T19:11:01.433Z,13.27
2018-01-10T19:13:28.854Z,11.83
2018-01-10T19:15:56.326Z,13.67
2018-01-10T19:18:23.721Z,13.87
2018-01-10T19:20:51.147Z,15.40
2018-01-10T19:23:18.555Z,14.00
2018-01-10T19:25:45.998Z,14.53
2018-01-10T19:28:13.410Z,16.93
2018-01-10T19:30:40.818Z,14.00
2018-01-10T19:33:08.247Z,12.60
2018-01-10T19:35:35.662Z,12.80
2018-01-10T19:38:03.095Z,12.87
2018-01-10T19:40:30.503Z,12.47
2018-01-10T19:42:57.914Z,12.50
2018-01-10T19:45:25.329Z,12.50
2018-01-10T19:47:52.812Z,12.40
2018-01-10T19:50:21.191Z,11.53
2018-01-10T19:52:48.721Z,11.20
2018-01-10T19:55:16.132Z,12.30
2018-01-10T19:57:43.557Z,11.77
2018-01-10T20:00:10.968Z,11.50
2018-01-10T20:02:39.246Z,14.67
2018-01-10T20:05:06.733Z,14.57
2018-01-10T20:07:35.140Z,14.53
2018-01-10T20:10:02.570Z,15.00
2018-01-10T20:12:30.013Z,15.03
2018-01-10T20:14:57.452Z,13.73
2018-01-10T20:17:24.894Z,14.57
2018-01-10T20:19:54.258Z,16.77
2018-01-10T20:22:21.669Z,16.87
2018-01-10T20:24:49.081Z,16.13
2018-01-10T20:27:16.507Z,16.57
2018-01-10T20:29:43.914Z,16.37
2018-01-10T20:32:11.322Z,16.47
2018-01-10T20:34:38.741Z,17.03
2018-01-10T20:37:06.161Z,15.70
2018-01-10T20:39:33.590Z,16.03
2018-01-10T20:42:00.995Z,16.17
2018-01-10T20:44:28.406Z,15.50
2018-01-10T20:46:55.829Z,16.30
2018-01-10T20:49:23.232Z,16.10
2018-01-10T20:51:50.778Z,15.37
2018-01-10T20:54:18.178Z,16.53
2018-01-10T20:56:45.586Z,16.60
2018-01-10T20:59:13.005Z,15.83
2018-01-10T21:01:40.410Z,18.10
2018-01-10T21:04:07.849Z,17.03
2018-01-10T21:06:35.272Z,18.83
2018-01-10T21:09:02.755Z,19.20
2018-01-10T21:11:30.157Z,16.10
2018-01-10T21:13:57.568Z,16.80
2018-01-10T21:16:25.005Z,17.03
2018-01-10T21:18:52.401Z,17.10
2018-01-10T21:21:19.814Z,16.00
2018-01-10T21:23:47.251Z,15.70
2018-01-10T21:26:14.652Z,17.13
2018-01-10T21:28:42.068Z,16.50
2018-01-10T21:31:09.482Z,18.57
2018-01-10T21:33:36.890Z,16.13
2018-01-10T21:36:04.306Z,17.40
2018-01-10T21:38:31.729Z,16.10
2018-01-10T21:40:59.137Z,16.47
2018-01-10T21:43:26.542Z,15.57
2018-01-10T21:45:53.959Z,16.50
2018-01-10T21:48:21.369Z,16.17
2018-01-10T21:50:48.786Z,15.87
2018-01-10T21:53:16.229Z,15.80
2018-01-10T21:55:43.650Z,16.53
2018-01-10T21:58:11.050Z,16.13
2018-01-10T22:00:38.473Z,16.00
2018-01-10T22:03:05.897Z,15.93
2018-01-10T22:05:41.765Z,16.33
2018-01-10T22:08:09.191Z,15.00
2018-01-10T22:10:36.585Z,16.27
2018-01-10T22:13:04.413Z,16.20
2018-01-10T22:15:31.921Z,15.50
2018-01-10T22:17:59.338Z,16.87
2018-01-10T22:20:26.742Z,15.80
2018-01-10T22:22:54.150Z,17.07
2018-01-10T22:25:21.567Z,16.17
2018-01-10T22:27:48.999Z,16.77
2018-01-10T22:30:16.413Z,17.07
2018-01-10T22:32:43.821Z,17.73
2018-01-10T22:35:11.258Z,17.13
2018-01-10T22:37:38.681Z,17.53
2018-01-10T22:40:06.105Z,16.80
2018-01-10T22:42:33.526Z,16.13
2018-01-10T22:45:00.939Z,17.10
2018-01-10T22:47:28.356Z,16.53
2018-01-10T22:49:55.770Z,17.50
2018-01-10T22:52:23.178Z,16.13
2018-01-10T22:54:50.611Z,16.47
2018-01-10T22:57:19.250Z,17.43
2018-01-10T22:59:46.645Z,17.30
2018-01-10T23:02:14.058Z,17.10
2018-01-10T23:04:41.457Z,17.00
2018-01-10T23:07:08.876Z,17.40
2018-01-10T23:09:36.281Z,16.83
2018-01-10T23:12:03.698Z,16.70
2018-01-10T23:14:31.111Z,16.40
2018-01-10T23:16:58.517Z,16.50
2018-01-10T23:19:25.937Z,17.67
2018-01-10T23:21:53.370Z,18.47
2018-01-10T23:24:20.779Z,17.50
2018-01-10T23:26:48.234Z,18.13
2018-01-10T23:29:15.630Z,17.63
2018-01-10T23:31:44.053Z,18.90
2018-01-10T23:34:11.468Z,17.77
2018-01-10T23:36:38.914Z,17.83
2018-01-10T23:39:06.321Z,17.33
2018-01-10T23:41:33.729Z,17.80
2018-01-10T23:44:01.145Z,17.80
2018-01-10T23:46:28.557Z,18.37
2018-01-10T23:48:55.957Z,18.87
2018-01-10T23:51:23.381Z,17.37
2018-01-10T23:53:50.801Z,19.00
2018-01-10T23:56:18.258Z,18.77
2018-01-10T23:58:45.672Z,19.80
